createdAt,value
2018-04-10T00:01:32.129Z,46.60
2018-04-10T00:03:59.621Z,46.60
2018-04-10T00:06:27.893Z,47.10
2018-04-10T00:08:56.172Z,47.00
2018-04-10T00:11:24.444Z,46.60
2018-04-10T00:13:52.906Z,46.20
2018-04-10T00:16:20.436Z,46.10
2018-04-10T00:18:47.928Z,45.90
2018-04-10T00:21:15.428Z,46.10
2018-04-10T00:23:42.934Z,46.50
2018-04-10T00:26:10.458Z,46.20
2018-04-10T00:28:37.970Z,46.10
2018-04-10T00:31:06.253Z,46.30
2018-04-10T00:33:34.514Z,46.40
2018-04-10T00:36:02.005Z,46.40
2018-04-10T00:38:29.509Z,46.40
2018-04-10T00:40:57.011Z,46.40
2018-04-10T00:43:25.272Z,46.60
2018-04-10T00:45:53.553Z,46.90
2018-04-10T00:48:21.841Z,47.20
2018-04-10T00:50:50.113Z,47.10
2018-04-10T00:53:30.221Z,47.20
2018-04-10T00:55:57.728Z,47.20
2018-04-10T00:58:25.989Z,47.40
2018-04-10T01:00:53.487Z,47.40
2018-04-10T01:03:20.985Z,47.60
2018-04-10T01:05:48.486Z,48.40
2018-04-10T01:08:15.988Z,48.50
2018-04-10T01:10:43.484Z,49.00
2018-04-10T01:13:11.748Z,49.30
2018-04-10T01:15:39.242Z,49.20
2018-04-10T01:18:06.740Z,49.30
2018-04-10T01:20:34.236Z,50.10
2018-04-10T01:23:02.509Z,50.10
2018-04-10T01:25:30.777Z,50.20
2018-04-10T01:27:59.104Z,50.30
2018-04-10T01:30:26.628Z,50.30
2018-04-10T01:32:54.898Z,51.10
2018-04-10T01:35:22.392Z,51.00
2018-04-10T01:37:49.888Z,51.30
2018-04-10T01:40:17.385Z,51.60
2018-04-10T01:42:45.645Z,52.10
2018-04-10T01:45:13.970Z,52.50
2018-04-10T01:47:42.201Z,53.20
2018-04-10T01:50:10.520Z,53.70
2018-04-10T01:52:38.018Z,53.60
2018-04-10T01:55:05.509Z,53.80
2018-04-10T01:57:33.786Z,54.50
2018-04-10T02:00:02.045Z,54.70
2018-04-10T02:02:30.307Z,55.50
2018-04-10T02:04:57.801Z,55.30
2018-04-10T02:07:26.062Z,55.90
2018-04-10T02:10:12.087Z,56.20
2018-04-10T02:12:39.602Z,56.20
2018-04-10T02:15:07.113Z,56.60
2018-04-10T02:17:34.618Z,57.30
2018-04-10T02:20:02.139Z,57.00
2018-04-10T02:22:29.633Z,57.70
2018-04-10T02:24:57.124Z,57.20
2018-04-10T02:27:24.640Z,57.10
2018-04-10T02:29:52.135Z,57.50
2018-04-10T02:32:20.398Z,57.50
2018-04-10T02:34:48.682Z,57.50
2018-04-10T02:37:16.947Z,57.80
2018-04-10T02:39:45.425Z,57.90
2018-04-10T02:42:12.938Z,57.80
2018-04-10T02:44:40.448Z,58.00
2018-04-10T02:47:08.709Z,58.00
2018-04-10T02:49:36.201Z,58.00
2018-04-10T02:52:03.714Z,58.40
2018-04-10T02:54:31.218Z,57.70
2018-04-10T02:56:58.721Z,57.30
2018-04-10T02:59:26.220Z,57.00
2018-04-10T03:01:54.497Z,56.90
2018-04-10T03:04:22.760Z,57.00
2018-04-10T03:06:50.259Z,56.90
2018-04-10T03:09:17.780Z,57.50
2018-04-10T03:11:45.290Z,56.90
2018-04-10T03:14:12.798Z,57.50
2018-04-10T03:16:41.060Z,56.80
2018-04-10T03:19:10.057Z,56.80
2018-04-10T03:21:37.553Z,56.80
2018-04-10T03:24:05.050Z,56.80
2018-04-10T03:26:32.558Z,56.60
2018-04-10T03:29:00.830Z,56.60
2018-04-10T03:31:29.093Z,56.50
2018-04-10T03:33:56.587Z,56.50
2018-04-10T03:36:24.089Z,56.60
2018-04-10T03:38:51.609Z,56.50
2018-04-10T03:41:19.120Z,56.50
2018-04-10T03:43:46.610Z,56.40
2018-04-10T03:46:14.861Z,56.30
2018-04-10T03:48:42.466Z,56.30
2018-04-10T03:51:09.970Z,56.40
2018-04-10T03:53:50.226Z,56.50
2018-04-10T03:56:17.730Z,56.40
2018-04-10T03:58:45.242Z,56.50
2018-04-10T04:01:12.737Z,56.70
2018-04-10T04:03:40.249Z,56.70
2018-04-10T04:06:07.740Z,56.70
2018-04-10T04:08:36.008Z,56.50
2018-04-10T04:11:04.269Z,56.50
2018-04-10T04:13:31.761Z,56.50
2018-04-10T04:16:00.046Z,56.60
2018-04-10T04:18:39.524Z,56.60
2018-04-10T04:21:18.821Z,56.60
2018-04-10T04:23:46.321Z,56.80
2018-04-10T04:26:13.837Z,56.80
2018-04-10T04:28:41.340Z,56.80
2018-04-10T04:31:08.833Z,56.90
2018-04-10T04:33:37.110Z,56.80
2018-04-10T04:36:05.389Z,56.90
2018-04-10T04:38:33.669Z,56.70
2018-04-10T04:41:01.937Z,56.60
2018-04-10T04:43:30.198Z,56.50
2018-04-10T04:45:57.693Z,56.50
2018-04-10T04:48:25.189Z,56.70
2018-04-10T04:50:52.701Z,56.70
2018-04-10T04:53:20.957Z,56.80
2018-04-10T04:55:49.236Z,56.80
2018-04-10T04:58:17.508Z,56.30
2018-04-10T05:00:45.009Z,56.70
2018-04-10T05:03:12.509Z,56.60
2018-04-10T05:05:40.012Z,56.70
2018-04-10T05:08:07.526Z,57.00
2018-04-10T05:10:35.017Z,56.70
2018-04-10T05:13:03.277Z,56.70
2018-04-10T05:15:30.777Z,56.70
2018-04-10T05:17:58.294Z,56.50
2018-04-10T05:20:25.824Z,56.30
2018-04-10T05:22:53.322Z,56.10
2018-04-10T05:25:21.585Z,55.80
2018-04-10T05:27:49.100Z,55.80
2018-04-10T05:30:16.596Z,56.40
2018-04-10T05:32:44.089Z,56.00
2018-04-10T05:35:11.589Z,55.90
2018-04-10T05:37:39.096Z,55.70
2018-04-10T05:40:07.357Z,55.70
2018-04-10T05:42:34.861Z,55.70
2018-04-10T05:45:02.356Z,55.50
2018-04-10T05:47:29.860Z,55.40
2018-04-10T05:49:57.357Z,55.30
2018-04-10T05:52:24.892Z,55.20
2018-04-10T05:54:52.382Z,55.00
2018-04-10T05:57:19.916Z,55.10
2018-04-10T05:59:47.422Z,55.00
2018-04-10T06:02:15.682Z,56.10
2018-04-10T06:04:43.201Z,55.50
2018-04-10T06:07:10.698Z,55.50
2018-04-10T06:09:38.549Z,55.20
2018-04-10T06:12:06.041Z,55.00
2018-04-10T06:14:33.540Z,54.90
2018-04-10T06:17:01.033Z,54.20
2018-04-10T06:19:28.545Z,54.90
2018-04-10T06:21:56.052Z,54.80
2018-04-10T06:24:23.549Z,54.90
2018-04-10T06:26:51.820Z,54.60
2018-04-10T06:29:20.094Z,54.00
2018-04-10T06:31:48.366Z,54.00
2018-04-10T06:34:16.637Z,54.30
2018-04-10T06:36:44.896Z,53.70
2018-04-10T06:39:12.401Z,53.60
2018-04-10T06:41:39.908Z,53.60
2018-04-10T06:44:07.405Z,53.40
2018-04-10T06:46:35.665Z,52.60
2018-04-10T06:49:03.157Z,52.60
2018-04-10T06:51:30.665Z,52.30
2018-04-10T06:53:58.172Z,51.60
2018-04-10T06:56:25.661Z,51.70
2018-04-10T06:58:53.166Z,51.70
2018-04-10T07:01:20.681Z,51.20
2018-04-10T07:03:48.189Z,51.00
2018-04-10T07:06:16.466Z,51.20
2018-04-10T07:08:44.733Z,51.50
2018-04-10T07:11:13.009Z,51.20
2018-04-10T07:13:41.269Z,51.60
2018-04-10T07:16:08.946Z,51.40
2018-04-10T07:18:37.218Z,51.90
2018-04-10T07:21:05.498Z,52.00
2018-04-10T07:23:33.769Z,51.70
2018-04-10T07:26:02.061Z,51.10
2018-04-10T07:28:30.321Z,51.00
2018-04-10T07:30:58.589Z,50.20
2018-04-10T07:33:26.088Z,50.20
2018-04-10T07:35:53.589Z,50.40
2018-04-10T07:38:21.109Z,49.70
2018-04-10T07:40:48.614Z,49.50
2018-04-10T07:43:16.116Z,49.20
2018-04-10T07:45:43.621Z,49.10
2018-04-10T07:48:11.117Z,48.50
2018-04-10T07:50:39.389Z,47.90
2018-04-10T07:53:07.651Z,47.70
2018-04-10T07:55:35.915Z,47.90
2018-04-10T07:58:03.409Z,47.90
2018-04-10T08:00:31.681Z,47.40
2018-04-10T08:02:59.957Z,47.00
2018-04-10T08:05:28.237Z,46.60
2018-04-10T08:07:56.499Z,46.10
2018-04-10T08:10:24.757Z,45.30
2018-04-10T08:12:52.257Z,44.90
2018-04-10T08:15:19.752Z,45.70
2018-04-10T08:17:47.249Z,45.30
2018-04-10T08:20:16.257Z,43.90
2018-04-10T08:22:44.521Z,44.20
2018-04-10T08:25:12.026Z,44.10
2018-04-10T08:27:39.521Z,44.10
2018-04-10T08:30:08.541Z,42.50
2018-04-10T08:32:36.798Z,43.90
2018-04-10T08:35:05.101Z,43.40
2018-04-10T08:37:33.361Z,42.80
2018-04-10T08:40:01.629Z,44.40
2018-04-10T08:42:29.169Z,44.40
2018-04-10T08:44:56.663Z,43.00
2018-04-10T08:47:24.933Z,43.90
2018-04-10T08:49:53.194Z,44.90
2018-04-10T08:52:20.688Z,44.90
2018-04-10T08:54:48.190Z,44.20
2018-04-10T08:57:15.681Z,44.80
2018-04-10T08:59:43.168Z,45.50
2018-04-10T09:02:10.712Z,44.60
2018-04-10T09:04:38.177Z,43.60
2018-04-10T09:07:06.434Z,43.90
2018-04-10T09:09:34.714Z,43.70
2018-04-10T09:12:02.972Z,43.50
2018-04-10T09:14:31.239Z,43.70
2018-04-10T09:16:58.730Z,43.80
2018-04-10T09:19:26.992Z,45.90
2018-04-10T09:21:54.512Z,45.80
2018-04-10T09:24:22.052Z,46.40
2018-04-10T09:26:49.565Z,45.10
2018-04-10T09:29:17.845Z,44.00
2018-04-10T09:31:46.122Z,44.20
2018-04-10T09:34:14.379Z,43.40
2018-04-10T09:36:41.869Z,43.70
2018-04-10T09:39:10.117Z,43.30
2018-04-10T09:41:38.565Z,43.30
2018-04-10T09:44:06.054Z,42.20
2018-04-10T09:46:33.542Z,42.30
2018-04-10T09:49:01.817Z,42.90
2018-04-10T09:51:30.073Z,43.10
2018-04-10T09:53:59.089Z,43.00
2018-04-10T09:56:27.353Z,43.60
2018-04-10T09:58:56.357Z,43.90
2018-04-10T10:01:24.621Z,44.00
2018-04-10T10:03:52.130Z,43.90
2018-04-10T10:06:19.637Z,42.90
2018-04-10T10:08:47.134Z,42.40
2018-04-10T10:11:14.627Z,42.20
2018-04-10T10:13:42.124Z,41.80
2018-04-10T10:16:10.397Z,41.80
2018-04-10T10:18:38.653Z,41.50
2018-04-10T10:21:06.173Z,41.50
2018-04-10T10:23:33.681Z,42.10
2018-04-10T10:26:01.234Z,43.00
2018-04-10T10:28:28.693Z,42.50
2018-04-10T10:30:56.198Z,43.00
2018-04-10T10:33:23.705Z,43.10
2018-04-10T10:35:51.965Z,41.30
2018-04-10T10:38:19.458Z,41.40
2018-04-10T10:40:47.735Z,41.50
2018-04-10T10:43:16.000Z,41.00
2018-04-10T10:45:43.509Z,41.00
2018-04-10T10:48:11.010Z,41.10
2018-04-10T10:50:38.504Z,40.60
2018-04-10T10:53:06.013Z,41.70
2018-04-10T10:55:33.517Z,41.80
2018-04-10T10:58:01.797Z,40.30
2018-04-10T11:00:29.301Z,40.30
2018-04-10T11:02:56.809Z,40.70
2018-04-10T11:05:25.120Z,40.20
2018-04-10T11:07:52.625Z,40.20
2018-04-10T11:10:20.909Z,41.90
2018-04-10T11:12:49.165Z,40.10
2018-04-10T11:15:16.673Z,40.20
2018-04-10T11:17:44.173Z,40.10
2018-04-10T11:20:11.669Z,39.80
2018-04-10T11:22:39.969Z,40.90
2018-04-10T11:25:07.465Z,40.90
2018-04-10T11:27:35.097Z,40.40
2018-04-10T11:30:02.623Z,40.90
2018-04-10T11:32:30.889Z,41.60
2018-04-10T11:34:59.154Z,41.70
2018-04-10T11:37:26.646Z,41.80
2018-04-10T11:39:54.157Z,40.80
2018-04-10T11:42:21.667Z,40.80
2018-04-10T11:44:49.178Z,40.00
2018-04-10T11:47:17.451Z,40.20
2018-04-10T11:49:44.967Z,40.30
2018-04-10T11:52:12.461Z,40.50
2018-04-10T11:54:39.960Z,41.00
2018-04-10T11:57:08.233Z,42.80
2018-04-10T11:59:36.502Z,42.30
2018-04-10T12:02:04.007Z,42.30
2018-04-10T12:04:31.517Z,43.50
2018-04-10T12:06:59.021Z,42.00
2018-04-10T12:09:26.802Z,42.00
2018-04-10T12:11:54.293Z,40.80
2018-04-10T12:14:21.785Z,42.40
2018-04-10T12:16:49.282Z,41.60
2018-04-10T12:19:16.785Z,39.70
2018-04-10T12:21:45.050Z,40.30
2018-04-10T12:24:13.321Z,40.90
2018-04-10T12:26:40.828Z,40.90
2018-04-10T12:29:08.317Z,41.20
2018-04-10T12:31:35.805Z,42.80
2018-04-10T12:34:04.061Z,41.70
2018-04-10T12:36:31.569Z,41.70
2018-04-10T12:38:59.056Z,40.80
2018-04-10T12:41:26.556Z,40.50
2018-04-10T12:43:54.842Z,41.30
2018-04-10T12:46:23.097Z,40.50
2018-04-10T12:48:50.617Z,41.10
2018-04-10T12:51:18.116Z,40.50
2018-04-10T12:53:45.720Z,41.10
2018-04-10T12:56:13.213Z,40.70
2018-04-10T12:58:40.731Z,40.50
2018-04-10T13:01:08.402Z,40.50
2018-04-10T13:03:35.908Z,41.00
2018-04-10T13:06:03.401Z,40.90
2018-04-10T13:08:30.904Z,42.30
2018-04-10T13:10:58.397Z,41.60
2018-04-10T13:13:26.685Z,39.10
2018-04-10T13:15:54.945Z,38.80
2018-04-10T13:18:23.221Z,38.70
2018-04-10T13:20:51.483Z,39.30
2018-04-10T13:23:18.981Z,39.30
2018-04-10T13:25:46.490Z,39.30
2018-04-10T13:28:13.981Z,39.90
2018-04-10T13:30:42.257Z,41.20
2018-04-10T13:33:10.521Z,42.80
2018-04-10T13:35:38.033Z,42.80
2018-04-10T13:38:05.537Z,42.00
2018-04-10T13:40:33.809Z,41.50
2018-04-10T13:43:01.310Z,41.50
2018-04-10T13:45:28.813Z,41.70
2018-04-10T13:47:56.305Z,41.90
2018-04-10T13:50:24.562Z,42.50
2018-04-10T13:52:52.057Z,42.40
2018-04-10T13:55:19.563Z,42.00
2018-04-10T13:57:47.069Z,41.30
2018-04-10T14:00:14.571Z,40.80
2018-04-10T14:02:42.064Z,40.20
2018-04-10T14:05:10.353Z,39.30
2018-04-10T14:07:38.616Z,39.10
2018-04-10T14:10:06.901Z,38.30
2018-04-10T14:12:35.162Z,37.90
2018-04-10T14:15:02.658Z,37.90
2018-04-10T14:17:30.177Z,37.50
2018-04-10T14:19:57.782Z,37.60
2018-04-10T14:22:25.272Z,37.10
2018-04-10T14:24:52.777Z,36.40
2018-04-10T14:27:21.053Z,37.90
2018-04-10T14:29:49.313Z,35.50
2018-04-10T14:32:17.629Z,36.10
2018-04-10T14:34:45.126Z,36.10
2018-04-10T14:37:12.626Z,37.20
2018-04-10T14:39:40.880Z,38.60
2018-04-10T14:42:08.384Z,38.60
2018-04-10T14:44:35.912Z,38.40
2018-04-10T14:47:04.189Z,37.20
2018-04-10T14:49:32.453Z,37.70
2018-04-10T14:52:00.713Z,37.00
2018-04-10T14:54:28.201Z,37.00
2018-04-10T14:56:56.462Z,36.80
2018-04-10T14:59:24.737Z,37.10
2018-04-10T15:01:52.249Z,37.10
2018-04-10T15:04:19.745Z,36.70
2018-04-10T15:06:48.018Z,36.70
2018-04-10T15:09:15.545Z,36.70
2018-04-10T15:11:43.045Z,36.30
2018-04-10T15:14:10.552Z,35.20
2018-04-10T15:16:38.041Z,34.60
2018-04-10T15:19:05.642Z,33.30
2018-04-10T15:21:33.900Z,33.20
2018-04-10T15:24:02.160Z,32.90
2018-04-10T15:26:29.670Z,32.90
2018-04-10T15:28:57.179Z,32.30
2018-04-10T15:31:24.691Z,31.90
2018-04-10T15:33:52.255Z,32.80
2018-04-10T15:36:19.784Z,33.50
2018-04-10T15:38:48.058Z,31.80
2018-04-10T15:41:16.315Z,32.40
2018-04-10T15:43:45.324Z,32.00
2018-04-10T15:46:13.589Z,33.20
2018-04-10T15:48:41.094Z,33.20
2018-04-10T15:51:08.593Z,32.90
2018-04-10T15:53:36.106Z,33.50
2018-04-10T15:56:03.604Z,33.60
2018-04-10T15:58:31.096Z,34.30
2018-04-10T16:00:59.358Z,33.70
2018-04-10T16:03:26.854Z,33.70
2018-04-10T16:05:54.418Z,33.80
2018-04-10T16:08:21.913Z,33.20
2018-04-10T16:10:49.420Z,33.60
2018-04-10T16:13:16.913Z,33.90
2018-04-10T16:15:44.401Z,34.50
2018-04-10T16:18:11.914Z,35.20
2018-04-10T16:20:39.420Z,36.30
2018-04-10T16:23:06.934Z,37.70
2018-04-10T16:25:34.425Z,38.60
2018-04-10T16:32:37.884Z,40.30
2018-04-10T16:35:05.409Z,41.50
2018-04-10T16:37:32.898Z,42.70
2018-04-10T16:40:01.174Z,44.10
2018-04-10T16:42:29.449Z,44.50
2018-04-10T16:44:57.725Z,44.90
2018-04-10T16:47:25.983Z,45.30
2018-04-10T16:49:54.245Z,45.90
2018-04-10T16:52:21.771Z,45.80
2018-04-10T16:54:49.277Z,46.40
2018-04-10T16:57:17.562Z,47.00
2018-04-10T16:59:45.055Z,47.10
2018-04-10T17:02:12.556Z,48.30
2018-04-10T17:04:40.065Z,48.30
2018-04-10T17:07:07.558Z,48.70
2018-04-10T17:09:35.064Z,48.80
2018-04-10T17:12:03.325Z,49.30
2018-04-10T17:14:30.816Z,49.20
2018-04-10T17:16:58.322Z,49.10
2018-04-10T17:19:25.826Z,49.40
2018-04-10T17:21:54.094Z,49.90
2018-04-10T17:24:22.357Z,50.20
2018-04-10T17:26:49.851Z,50.00
2018-04-10T17:29:17.338Z,50.10
2018-04-10T17:31:44.845Z,50.10
2018-04-10T17:34:13.109Z,50.40
2018-04-10T17:36:40.617Z,50.50
2018-04-10T17:39:08.117Z,50.30
2018-04-10T17:41:36.377Z,50.70
2018-04-10T17:44:03.869Z,50.70
2018-04-10T17:46:32.142Z,51.20
2018-04-10T17:49:00.400Z,51.30
2018-04-10T17:51:29.448Z,51.60
2018-04-10T17:53:56.945Z,51.50
2018-04-10T17:56:24.445Z,51.40
2018-04-10T17:58:51.947Z,52.00
2018-04-10T18:01:19.461Z,52.30
2018-04-10T18:03:46.954Z,52.10
2018-04-10T18:06:14.460Z,52.40
2018-04-10T18:08:42.729Z,52.70
2018-04-10T18:11:10.237Z,52.70
2018-04-10T18:13:37.729Z,52.70
2018-04-10T18:16:05.243Z,52.80
2018-04-10T18:18:32.815Z,53.20
2018-04-10T18:21:00.321Z,53.20
2018-04-10T18:23:28.235Z,53.30
2018-04-10T18:25:55.739Z,53.30
2018-04-10T18:28:23.233Z,53.40
2018-04-10T18:30:50.726Z,53.60
2018-04-10T18:33:18.225Z,54.00
2018-04-10T18:35:46.489Z,55.00
2018-04-10T18:38:13.985Z,54.30
2018-04-10T18:40:41.484Z,54.40
2018-04-10T18:43:09.001Z,54.60
2018-04-10T18:45:36.505Z,54.70
2018-04-10T18:48:04.021Z,54.90
2018-04-10T18:50:31.542Z,55.30
2018-04-10T18:52:59.062Z,55.30
2018-04-10T18:55:26.573Z,55.20
2018-04-10T18:57:54.862Z,55.60
2018-04-10T19:00:23.134Z,55.70
2018-04-10T19:02:51.397Z,55.60
2018-04-10T19:05:19.657Z,55.70
2018-04-10T19:07:47.205Z,55.50
2018-04-10T19:10:14.709Z,55.50
2018-04-10T19:12:43.001Z,55.30
2018-04-10T19:15:10.501Z,55.30
2018-04-10T19:17:38.009Z,55.20
2018-04-10T19:20:05.513Z,55.20
2018-04-10T19:22:33.019Z,55.20
2018-04-10T19:25:01.289Z,55.30
2018-04-10T19:27:29.568Z,55.30
2018-04-10T19:29:57.841Z,55.40
2018-04-10T19:32:26.237Z,56.10
2018-04-10T19:34:53.823Z,55.50
2018-04-10T19:37:21.336Z,55.40
2018-04-10T19:39:49.617Z,55.90
2018-04-10T19:42:18.029Z,55.90
2018-04-10T19:44:45.537Z,55.80
2018-04-10T19:47:13.065Z,56.20
2018-04-10T19:49:40.573Z,56.20
2018-04-10T19:52:08.828Z,56.30
2018-04-10T19:54:36.338Z,56.20
2018-04-10T19:57:04.782Z,56.10
2018-04-10T19:59:33.269Z,56.00
2018-04-10T20:02:01.537Z,56.00
2018-04-10T20:04:29.798Z,56.60
2018-04-10T20:06:57.297Z,56.00
2018-04-10T20:09:24.798Z,56.00
2018-04-10T20:11:52.328Z,56.20
2018-04-10T20:14:19.825Z,56.40
2018-04-10T20:16:47.328Z,56.40
2018-04-10T20:19:14.834Z,56.40
2018-04-10T20:21:42.328Z,56.50
2018-04-10T20:24:10.593Z,56.80
2018-04-10T20:26:38.080Z,56.70
2018-04-10T20:29:05.632Z,56.90
2018-04-10T20:31:33.893Z,57.40
2018-04-10T20:34:02.185Z,57.90
2018-04-10T20:36:30.452Z,57.70
2018-04-10T20:38:58.708Z,57.70
2018-04-10T20:41:26.202Z,57.60
2018-04-10T20:43:53.693Z,57.70
2018-04-10T20:46:21.187Z,57.80
2018-04-10T20:48:48.689Z,58.00
2018-04-10T20:51:16.192Z,58.20
2018-04-10T20:53:43.698Z,58.10
2018-04-10T20:56:11.188Z,58.40
2018-04-10T20:58:38.685Z,58.10
2018-04-10T21:01:06.200Z,57.90
2018-04-10T21:03:33.746Z,58.10
2018-04-10T21:06:01.245Z,58.30
2018-04-10T21:08:28.753Z,58.40
2018-04-10T21:10:56.249Z,58.70
2018-04-10T21:13:23.757Z,58.60
2018-04-10T21:15:52.037Z,58.70
2018-04-10T21:18:19.536Z,58.70
2018-04-10T21:20:47.032Z,58.50
2018-04-10T21:23:15.292Z,58.40
2018-04-10T21:25:42.803Z,58.30
2018-04-10T21:28:10.293Z,58.50
2018-04-10T21:30:37.784Z,58.60
2018-04-10T21:33:06.065Z,58.40
2018-04-10T21:35:34.332Z,58.50
2018-04-10T21:38:01.825Z,58.40
2018-04-10T21:40:29.323Z,58.20
2018-04-10T21:43:02.526Z,58.30
2018-04-10T21:45:31.537Z,58.10
2018-04-10T21:47:59.031Z,58.10
2018-04-10T21:50:26.545Z,58.00
2018-04-10T21:52:54.809Z,57.70
2018-04-10T21:55:22.313Z,58.00
2018-04-10T21:57:49.821Z,58.00
2018-04-10T22:00:17.330Z,58.10
2018-04-10T22:02:44.835Z,58.20
2018-04-10T22:05:12.364Z,58.20
2018-04-10T22:07:39.880Z,58.20
2018-04-10T22:10:07.374Z,58.50
2018-04-10T22:12:34.869Z,58.60
2018-04-10T22:15:02.364Z,58.50
2018-04-10T22:17:30.627Z,58.40
2018-04-10T22:19:58.210Z,58.40
2018-04-10T22:22:26.484Z,58.70
2018-04-10T22:24:54.757Z,58.70
2018-04-10T22:27:23.021Z,58.60
2018-04-10T22:29:51.293Z,58.60
2018-04-10T22:32:18.802Z,58.60
2018-04-10T22:34:46.295Z,58.70
2018-04-10T22:37:14.549Z,58.40
2018-04-10T22:39:42.809Z,58.60
2018-04-10T22:42:10.313Z,58.60
2018-04-10T22:44:37.804Z,58.70
2018-04-10T22:47:05.297Z,58.70
2018-04-10T22:49:32.794Z,58.80
2018-04-10T22:52:00.305Z,58.80
2018-04-10T22:54:30.261Z,58.80
2018-04-10T22:56:58.537Z,58.90
2018-04-10T22:59:26.802Z,58.90
2018-04-10T23:01:55.065Z,59.00
2018-04-10T23:04:22.566Z,59.00
2018-04-10T23:06:50.077Z,59.00
2018-04-10T23:09:17.577Z,58.80
2018-04-10T23:11:45.097Z,58.90
2018-04-10T23:14:12.602Z,59.00
2018-04-10T23:16:40.866Z,59.20
2018-04-10T23:19:09.146Z,59.30
2018-04-10T23:21:37.413Z,59.40
2018-04-10T23:24:04.914Z,59.40
2018-04-10T23:26:32.430Z,59.40
2018-04-10T23:28:59.944Z,59.60
2018-04-10T23:31:27.437Z,59.80
2018-04-10T23:33:54.934Z,59.70
2018-04-10T23:36:23.201Z,60.10
2018-04-10T23:38:51.488Z,60.70
2018-04-10T23:41:19.757Z,60.50
2018-04-10T23:43:48.021Z,60.80
2018-04-10T23:46:15.518Z,60.80
2018-04-10T23:48:43.018Z,60.80
2018-04-10T23:51:10.514Z,61.10
2018-04-10T23:53:38.781Z,61.00
2018-04-10T23:56:06.303Z,61.00
2018-04-10T23:58:33.801Z,61.00
